sensor_id;sensor_type;location;lat;lon;timestamp;pressure;altitude;pressure_sealevel;temperature;humidity
23996;BME280;12207;50.076;8.848;2023-08-31T00:00:43;99473.50;;;14.12;94.52
23996;BME280;12207;50.076;8.848;2023-08-31T00:03:11;99464.63;;;14.12;94.86
23996;BME280;12207;50.076;8.848;2023-08-31T00:05:39;99461.91;;;14.12;94.92
23996;BME280;12207;50.076;8.848;2023-08-31T00:08:06;99465.69;;;14.11;94.76
23996;BME280;12207;50.076;8.848;2023-08-31T00:10:33;99457.03;;;14.09;94.58
23996;BME280;12207;50.076;8.848;2023-08-31T00:13:01;99462.44;;;14.09;94.93
23996;BME280;12207;50.076;8.848;2023-08-31T00:15:27;99463.00;;;14.11;95.14
23996;BME280;12207;50.076;8.848;2023-08-31T00:17:55;99466.75;;;14.10;94.89
23996;BME280;12207;50.076;8.848;2023-08-31T00:20:21;99458.16;;;14.13;94.89
23996;BME280;12207;50.076;8.848;2023-08-31T00:22:47;99464.06;;;14.10;95.14
23996;BME280;12207;50.076;8.848;2023-08-31T00:25:14;99465.69;;;14.11;95.15
23996;BME280;12207;50.076;8.848;2023-08-31T00:27:40;99464.69;;;14.17;94.84
23996;BME280;12207;50.076;8.848;2023-08-31T00:30:10;99470.06;;;14.17;94.80
23996;BME280;12207;50.076;8.848;2023-08-31T00:32:40;99474.38;;;14.18;94.52
23996;BME280;12207;50.076;8.848;2023-08-31T00:35:09;99473.56;;;14.17;94.31
23996;BME280;12207;50.076;8.848;2023-08-31T00:37:35;99477.28;;;14.11;94.61
23996;BME280;12207;50.076;8.848;2023-08-31T00:40:01;99477.97;;;14.02;94.24
23996;BME280;12207;50.076;8.848;2023-08-31T00:42:30;99476.81;;;13.97;95.06
23996;BME280;12207;50.076;8.848;2023-08-31T00:44:57;99478.47;;;13.98;95.31
23996;BME280;12207;50.076;8.848;2023-08-31T00:47:23;99480.59;;;13.96;94.52
23996;BME280;12207;50.076;8.848;2023-08-31T00:49:49;99488.81;;;13.85;94.72
23996;BME280;12207;50.076;8.848;2023-08-31T00:52:16;99479.91;;;13.84;94.75
23996;BME280;12207;50.076;8.848;2023-08-31T00:54:45;99484.81;;;13.87;94.70
23996;BME280;12207;50.076;8.848;2023-08-31T00:57:12;99477.22;;;13.84;94.73
23996;BME280;12207;50.076;8.848;2023-08-31T00:59:38;99479.97;;;13.89;94.16
23996;BME280;12207;50.076;8.848;2023-08-31T01:02:12;99478.78;;;13.80;94.19
23996;BME280;12207;50.076;8.848;2023-08-31T01:07:48;99483.84;;;13.77;94.29
23996;BME280;12207;50.076;8.848;2023-08-31T01:10:25;99486.72;;;13.70;94.77
23996;BME280;12207;50.076;8.848;2023-08-31T01:13:03;99502.00;;;13.64;95.06
23996;BME280;12207;50.076;8.848;2023-08-31T01:15:37;99506.31;;;13.65;95.19
23996;BME280;12207;50.076;8.848;2023-08-31T01:18:08;99501.44;;;13.62;95.34
23996;BME280;12207;50.076;8.848;2023-08-31T01:20:52;99488.72;;;13.58;95.04
23996;BME280;12207;50.076;8.848;2023-08-31T01:23:22;99498.41;;;13.59;95.06
23996;BME280;12207;50.076;8.848;2023-08-31T01:25:54;99494.09;;;13.58;94.82
23996;BME280;12207;50.076;8.848;2023-08-31T01:28:24;99500.06;;;13.60;95.08
23996;BME280;12207;50.076;8.848;2023-08-31T01:30:50;99497.53;;;13.53;94.92
23996;BME280;12207;50.076;8.848;2023-08-31T01:33:16;99499.97;;;13.55;94.98
23996;BME280;12207;50.076;8.848;2023-08-31T01:35:46;99507.31;;;13.59;94.51
23996;BME280;12207;50.076;8.848;2023-08-31T01:38:24;99506.59;;;13.47;94.79
23996;BME280;12207;50.076;8.848;2023-08-31T01:41:08;99511.16;;;13.47;94.99
23996;BME280;12207;50.076;8.848;2023-08-31T01:43:37;99510.63;;;13.45;94.73
23996;BME280;12207;50.076;8.848;2023-08-31T01:46:06;99499.84;;;13.45;94.80
23996;BME280;12207;50.076;8.848;2023-08-31T01:48:41;99514.13;;;13.45;94.52
23996;BME280;12207;50.076;8.848;2023-08-31T01:51:13;99508.31;;;13.37;94.74
23996;BME280;12207;50.076;8.848;2023-08-31T01:53:39;99524.81;;;13.40;94.60
23996;BME280;12207;50.076;8.848;2023-08-31T01:56:05;99525.69;;;13.29;94.74
23996;BME280;12207;50.076;8.848;2023-08-31T01:58:31;99510.38;;;13.29;94.87
23996;BME280;12207;50.076;8.848;2023-08-31T02:00:58;99511.91;;;13.25;94.96
23996;BME280;12207;50.076;8.848;2023-08-31T02:03:24;99514.94;;;13.29;95.35
23996;BME280;12207;50.076;8.848;2023-08-31T02:05:50;99517.63;;;13.29;94.91
23996;BME280;12207;50.076;8.848;2023-08-31T02:08:18;99512.56;;;13.32;94.82
23996;BME280;12207;50.076;8.848;2023-08-31T02:10:46;99523.81;;;13.29;94.32
23996;BME280;12207;50.076;8.848;2023-08-31T02:13:14;99520.31;;;13.29;94.52
23996;BME280;12207;50.076;8.848;2023-08-31T02:15:42;99523.72;;;13.24;94.84
23996;BME280;12207;50.076;8.848;2023-08-31T02:18:08;99517.47;;;13.19;95.15
23996;BME280;12207;50.076;8.848;2023-08-31T02:20:34;99526.38;;;13.19;95.32
23996;BME280;12207;50.076;8.848;2023-08-31T02:23:00;99523.72;;;13.24;94.81
23996;BME280;12207;50.076;8.848;2023-08-31T02:25:27;99524.63;;;13.13;94.78
23996;BME280;12207;50.076;8.848;2023-08-31T02:27:54;99517.59;;;13.12;94.79
23996;BME280;12207;50.076;8.848;2023-08-31T02:30:21;99524.63;;;13.13;94.82
23996;BME280;12207;50.076;8.848;2023-08-31T02:32:47;99523.91;;;13.18;94.68
23996;BME280;12207;50.076;8.848;2023-08-31T02:35:13;99532.63;;;13.25;94.73
23996;BME280;12207;50.076;8.848;2023-08-31T02:37:39;99528.00;;;13.20;94.85
23996;BME280;12207;50.076;8.848;2023-08-31T02:40:06;99526.94;;;13.21;94.64
23996;BME280;12207;50.076;8.848;2023-08-31T02:42:34;99522.44;;;13.27;94.72
23996;BME280;12207;50.076;8.848;2023-08-31T02:45:00;99533.53;;;13.30;94.80
23996;BME280;12207;50.076;8.848;2023-08-31T02:47:26;99531.47;;;13.38;95.05
23996;BME280;12207;50.076;8.848;2023-08-31T02:49:52;99523.31;;;13.32;94.37
23996;BME280;12207;50.076;8.848;2023-08-31T02:52:18;99519.56;;;13.34;95.26
23996;BME280;12207;50.076;8.848;2023-08-31T02:54:44;99522.84;;;13.36;94.90
23996;BME280;12207;50.076;8.848;2023-08-31T02:57:10;99534.66;;;13.35;94.81
23996;BME280;12207;50.076;8.848;2023-08-31T02:59:36;99539.31;;;13.39;94.74
23996;BME280;12207;50.076;8.848;2023-08-31T03:02:03;99540.28;;;13.33;94.64
23996;BME280;12207;50.076;8.848;2023-08-31T03:04:30;99537.84;;;13.31;94.48
23996;BME280;12207;50.076;8.848;2023-08-31T03:06:56;99534.91;;;13.33;95.14
23996;BME280;12207;50.076;8.848;2023-08-31T03:09:22;99541.09;;;13.34;94.77
23996;BME280;12207;50.076;8.848;2023-08-31T03:11:49;99543.78;;;13.34;94.84
23996;BME280;12207;50.076;8.848;2023-08-31T03:14:15;99542.72;;;13.35;94.68
23996;BME280;12207;50.076;8.848;2023-08-31T03:16:41;99548.94;;;13.35;94.26
23996;BME280;12207;50.076;8.848;2023-08-31T03:19:07;99540.13;;;13.40;94.37
23996;BME280;12207;50.076;8.848;2023-08-31T03:21:33;99541.75;;;13.41;94.13
23996;BME280;12207;50.076;8.848;2023-08-31T03:23:59;99542.38;;;13.48;93.99
23996;BME280;12207;50.076;8.848;2023-08-31T03:26:25;99540.75;;;13.47;94.34
23996;BME280;12207;50.076;8.848;2023-08-31T03:28:51;99536.94;;;13.43;94.41
23996;BME280;12207;50.076;8.848;2023-08-31T03:31:17;99540.25;;;13.50;93.28
23996;BME280;12207;50.076;8.848;2023-08-31T03:33:43;99549.09;;;13.45;93.89
23996;BME280;12207;50.076;8.848;2023-08-31T03:36:10;99540.03;;;13.51;93.35
23996;BME280;12207;50.076;8.848;2023-08-31T03:38:36;99541.16;;;13.55;93.10
23996;BME280;12207;50.076;8.848;2023-08-31T03:41:03;99537.75;;;13.60;92.32
23996;BME280;12207;50.076;8.848;2023-08-31T03:43:29;99543.03;;;13.55;93.09
23996;BME280;12207;50.076;8.848;2023-08-31T03:45:56;99541.50;;;13.59;93.09
23996;BME280;12207;50.076;8.848;2023-08-31T03:48:24;99543.38;;;13.58;92.85
23996;BME280;12207;50.076;8.848;2023-08-31T03:50:51;99542.38;;;13.64;91.56
23996;BME280;12207;50.076;8.848;2023-08-31T03:53:18;99544.34;;;13.69;91.49
23996;BME280;12207;50.076;8.848;2023-08-31T03:55:44;99540.50;;;13.65;91.54
23996;BME280;12207;50.076;8.848;2023-08-31T03:58:11;99550.22;;;13.66;91.76
23996;BME280;12207;50.076;8.848;2023-08-31T04:00:37;99551.53;;;13.63;92.55
23996;BME280;12207;50.076;8.848;2023-08-31T04:03:04;99558.78;;;13.63;92.05
23996;BME280;12207;50.076;8.848;2023-08-31T04:05:34;99561.72;;;13.61;92.37
23996;BME280;12207;50.076;8.848;2023-08-31T04:08:03;99561.97;;;13.60;92.18
23996;BME280;12207;50.076;8.848;2023-08-31T04:10:31;99574.38;;;13.61;92.21
23996;BME280;12207;50.076;8.848;2023-08-31T04:12:58;99579.75;;;13.61;92.20
23996;BME280;12207;50.076;8.848;2023-08-31T04:15:24;99582.34;;;13.56;92.77
23996;BME280;12207;50.076;8.848;2023-08-31T04:17:50;99574.59;;;13.59;92.41
23996;BME280;12207;50.076;8.848;2023-08-31T04:20:17;99583.56;;;13.48;92.57
23996;BME280;12207;50.076;8.848;2023-08-31T04:22:43;99583.31;;;13.50;92.42
23996;BME280;12207;50.076;8.848;2023-08-31T04:25:09;99587.59;;;13.46;92.52
23996;BME280;12207;50.076;8.848;2023-08-31T04:27:35;99587.59;;;13.46;92.76
23996;BME280;12207;50.076;8.848;2023-08-31T04:30:05;99586.78;;;13.45;93.09
23996;BME280;12207;50.076;8.848;2023-08-31T04:32:32;99594.59;;;13.47;92.88
23996;BME280;12207;50.076;8.848;2023-08-31T04:34:58;99587.84;;;13.44;93.39
23996;BME280;12207;50.076;8.848;2023-08-31T04:37:24;99587.09;;;13.49;92.92
23996;BME280;12207;50.076;8.848;2023-08-31T04:39:50;99592.47;;;13.49;92.54
23996;BME280;12207;50.076;8.848;2023-08-31T04:42:19;99598.38;;;13.46;92.43
23996;BME280;12207;50.076;8.848;2023-08-31T04:44:46;99605.91;;;13.49;93.05
23996;BME280;12207;50.076;8.848;2023-08-31T04:47:12;99601.94;;;13.51;92.72
23996;BME280;12207;50.076;8.848;2023-08-31T04:49:38;99607.50;;;13.45;92.58
23996;BME280;12207;50.076;8.848;2023-08-31T04:52:05;99607.78;;;13.48;93.31
23996;BME280;12207;50.076;8.848;2023-08-31T04:54:31;99610.81;;;13.52;93.50
23996;BME280;12207;50.076;8.848;2023-08-31T04:56:57;99606.00;;;13.54;93.07
23996;BME280;12207;50.076;8.848;2023-08-31T04:59:26;99608.94;;;13.52;93.52
23996;BME280;12207;50.076;8.848;2023-08-31T05:01:53;99615.16;;;13.53;92.91
23996;BME280;12207;50.076;8.848;2023-08-31T05:04:19;99617.09;;;13.57;92.81
23996;BME280;12207;50.076;8.848;2023-08-31T05:06:45;99625.09;;;13.52;93.00
23996;BME280;12207;50.076;8.848;2023-08-31T05:09:11;99633.75;;;13.54;92.86
23996;BME280;12207;50.076;8.848;2023-08-31T05:11:37;99626.41;;;13.50;92.77
23996;BME280;12207;50.076;8.848;2023-08-31T05:14:03;99625.00;;;13.47;92.64
23996;BME280;12207;50.076;8.848;2023-08-31T05:16:29;99631.72;;;13.45;92.60
23996;BME280;12207;50.076;8.848;2023-08-31T05:18:55;99630.38;;;13.47;92.35
23996;BME280;12207;50.076;8.848;2023-08-31T05:21:21;99642.38;;;13.40;92.51
23996;BME280;12207;50.076;8.848;2023-08-31T05:23:47;99636.03;;;13.46;92.22
23996;BME280;12207;50.076;8.848;2023-08-31T05:26:13;99635.53;;;13.49;91.88
23996;BME280;12207;50.076;8.848;2023-08-31T05:28:41;99639.94;;;13.55;91.53
23996;BME280;12207;50.076;8.848;2023-08-31T05:31:09;99647.81;;;14.12;90.97
23996;BME280;12207;50.076;8.848;2023-08-31T05:33:35;99658.59;;;14.50;87.41
23996;BME280;12207;50.076;8.848;2023-08-31T05:36:02;99658.06;;;14.97;85.32
23996;BME280;12207;50.076;8.848;2023-08-31T05:38:29;99667.06;;;15.29;84.22
23996;BME280;12207;50.076;8.848;2023-08-31T05:41:07;99663.47;;;15.78;81.28
23996;BME280;12207;50.076;8.848;2023-08-31T05:43:34;99679.56;;;15.99;81.17
23996;BME280;12207;50.076;8.848;2023-08-31T05:46:00;99677.31;;;16.28;79.36
23996;BME280;12207;50.076;8.848;2023-08-31T05:48:27;99679.28;;;16.43;77.55
23996;BME280;12207;50.076;8.848;2023-08-31T05:50:53;99676.91;;;16.57;77.39
23996;BME280;12207;50.076;8.848;2023-08-31T05:53:19;99677.72;;;16.52;77.15
23996;BME280;12207;50.076;8.848;2023-08-31T05:55:45;99683.06;;;16.42;76.44
23996;BME280;12207;50.076;8.848;2023-08-31T05:58:11;99680.63;;;15.98;77.88
23996;BME280;12207;50.076;8.848;2023-08-31T06:00:37;99677.75;;;15.46;79.45
23996;BME280;12207;50.076;8.848;2023-08-31T06:03:07;99673.97;;;15.20;81.30
23996;BME280;12207;50.076;8.848;2023-08-31T06:05:33;99678.19;;;14.84;82.66
23996;BME280;12207;50.076;8.848;2023-08-31T06:08:00;99689.44;;;15.03;82.68
23996;BME280;12207;50.076;8.848;2023-08-31T06:10:26;99692.56;;;15.44;81.57
23996;BME280;12207;50.076;8.848;2023-08-31T06:12:52;99688.78;;;16.03;79.52
23996;BME280;12207;50.076;8.848;2023-08-31T06:15:18;99690.69;;;16.55;77.47
23996;BME280;12207;50.076;8.848;2023-08-31T06:17:44;99700.91;;;16.90;74.41
23996;BME280;12207;50.076;8.848;2023-08-31T06:20:11;99706.84;;;16.87;75.33
23996;BME280;12207;50.076;8.848;2023-08-31T06:22:40;99705.88;;;17.19;72.99
23996;BME280;12207;50.076;8.848;2023-08-31T06:25:06;99713.41;;;17.07;74.37
23996;BME280;12207;50.076;8.848;2023-08-31T06:27:33;99721.25;;;17.08;74.32
23996;BME280;12207;50.076;8.848;2023-08-31T06:30:01;99720.19;;;16.57;73.82
23996;BME280;12207;50.076;8.848;2023-08-31T06:32:27;99726.88;;;16.44;75.08
23996;BME280;12207;50.076;8.848;2023-08-31T06:34:53;99723.34;;;16.01;76.85
23996;BME280;12207;50.076;8.848;2023-08-31T06:37:19;99720.34;;;15.98;78.00
23996;BME280;12207;50.076;8.848;2023-08-31T06:39:46;99719.50;;;16.34;76.25
23996;BME280;12207;50.076;8.848;2023-08-31T06:42:12;99718.41;;;16.78;76.11
23996;BME280;12207;50.076;8.848;2023-08-31T06:44:38;99723.22;;;17.33;75.67
23996;BME280;12207;50.076;8.848;2023-08-31T06:47:04;99721.31;;;17.18;73.76
23996;BME280;12207;50.076;8.848;2023-08-31T06:49:30;99721.31;;;17.28;72.85
23996;BME280;12207;50.076;8.848;2023-08-31T06:51:59;99708.31;;;17.20;71.48
23996;BME280;12207;50.076;8.848;2023-08-31T06:54:25;99717.03;;;17.48;72.27
23996;BME280;12207;50.076;8.848;2023-08-31T06:56:52;99715.47;;;17.82;72.15
23996;BME280;12207;50.076;8.848;2023-08-31T06:59:18;99725.50;;;17.87;69.80
23996;BME280;12207;50.076;8.848;2023-08-31T07:01:44;99732.00;;;17.76;69.98
23996;BME280;12207;50.076;8.848;2023-08-31T07:04:10;99732.53;;;17.83;70.53
23996;BME280;12207;50.076;8.848;2023-08-31T07:06:36;99727.94;;;17.68;70.48
23996;BME280;12207;50.076;8.848;2023-08-31T07:09:03;99732.97;;;17.34;71.49
23996;BME280;12207;50.076;8.848;2023-08-31T07:11:32;99748.16;;;17.35;72.15
23996;BME280;12207;50.076;8.848;2023-08-31T07:13:58;99738.19;;;17.61;71.74
23996;BME280;12207;50.076;8.848;2023-08-31T07:16:25;99736.53;;;17.45;71.45
23996;BME280;12207;50.076;8.848;2023-08-31T07:18:51;99755.59;;;17.90;70.84
23996;BME280;12207;50.076;8.848;2023-08-31T07:21:18;99757.47;;;17.85;71.69
23996;BME280;12207;50.076;8.848;2023-08-31T07:23:44;99762.00;;;17.44;70.90
23996;BME280;12207;50.076;8.848;2023-08-31T07:26:13;99757.69;;;17.48;71.43
23996;BME280;12207;50.076;8.848;2023-08-31T07:28:39;99761.44;;;17.42;72.48
23996;BME280;12207;50.076;8.848;2023-08-31T07:31:06;99770.56;;;17.15;73.45
23996;BME280;12207;50.076;8.848;2023-08-31T07:33:34;99769.16;;;16.97;72.92
23996;BME280;12207;50.076;8.848;2023-08-31T07:36:02;99767.13;;;16.73;74.71
23996;BME280;12207;50.076;8.848;2023-08-31T07:38:30;99776.72;;;16.53;75.02
23996;BME280;12207;50.076;8.848;2023-08-31T07:40:57;99776.44;;;16.55;74.82
23996;BME280;12207;50.076;8.848;2023-08-31T07:43:23;99778.31;;;16.49;74.56
23996;BME280;12207;50.076;8.848;2023-08-31T07:45:53;99779.41;;;16.95;73.44
23996;BME280;12207;50.076;8.848;2023-08-31T07:48:19;99785.94;;;17.87;72.17
23996;BME280;12207;50.076;8.848;2023-08-31T07:50:45;99792.19;;;17.93;70.44
23996;BME280;12207;50.076;8.848;2023-08-31T07:53:12;99787.66;;;17.26;73.55
23996;BME280;12207;50.076;8.848;2023-08-31T07:55:39;99788.50;;;16.74;75.40
23996;BME280;12207;50.076;8.848;2023-08-31T07:58:05;99784.72;;;16.38;73.80
23996;BME280;12207;50.076;8.848;2023-08-31T08:00:32;99800.63;;;16.66;75.29
23996;BME280;12207;50.076;8.848;2023-08-31T08:02:58;99801.91;;;17.06;72.31
23996;BME280;12207;50.076;8.848;2023-08-31T08:05:24;99798.41;;;17.05;72.59
23996;BME280;12207;50.076;8.848;2023-08-31T08:07:50;99797.66;;;17.25;72.13
23996;BME280;12207;50.076;8.848;2023-08-31T08:10:16;99807.22;;;17.48;71.42
23996;BME280;12207;50.076;8.848;2023-08-31T08:12:45;99801.66;;;17.80;69.75
23996;BME280;12207;50.076;8.848;2023-08-31T08:15:12;99807.13;;;18.31;67.71
23996;BME280;12207;50.076;8.848;2023-08-31T08:17:38;99797.59;;;18.69;67.17
23996;BME280;12207;50.076;8.848;2023-08-31T08:20:11;99800.88;;;18.66;65.53
23996;BME280;12207;50.076;8.848;2023-08-31T08:22:37;99804.78;;;19.19;65.31
23996;BME280;12207;50.076;8.848;2023-08-31T08:25:03;99802.06;;;19.19;63.97
23996;BME280;12207;50.076;8.848;2023-08-31T08:27:29;99808.00;;;19.31;65.63
23996;BME280;12207;50.076;8.848;2023-08-31T08:29:57;99820.41;;;18.78;64.22
23996;BME280;12207;50.076;8.848;2023-08-31T08:32:23;99816.34;;;18.60;65.64
23996;BME280;12207;50.076;8.848;2023-08-31T08:34:50;99808.19;;;18.10;65.86
23996;BME280;12207;50.076;8.848;2023-08-31T08:37:17;99812.00;;;18.39;66.65
23996;BME280;12207;50.076;8.848;2023-08-31T08:39:43;99816.88;;;18.57;67.12
23996;BME280;12207;50.076;8.848;2023-08-31T08:42:10;99814.97;;;18.22;64.83
23996;BME280;12207;50.076;8.848;2023-08-31T08:44:37;99828.53;;;18.42;65.89
23996;BME280;12207;50.076;8.848;2023-08-31T08:47:03;99827.44;;;18.74;64.88
23996;BME280;12207;50.076;8.848;2023-08-31T08:49:31;99827.06;;;19.21;63.51
23996;BME280;12207;50.076;8.848;2023-08-31T08:51:58;99834.56;;;19.55;64.29
23996;BME280;12207;50.076;8.848;2023-08-31T08:54:25;99826.81;;;19.77;62.60
23996;BME280;12207;50.076;8.848;2023-08-31T08:56:53;99842.47;;;19.95;60.84
23996;BME280;12207;50.076;8.848;2023-08-31T08:59:19;99838.13;;;19.94;60.50
23996;BME280;12207;50.076;8.848;2023-08-31T09:01:46;99823.13;;;20.36;59.38
23996;BME280;12207;50.076;8.848;2023-08-31T09:04:13;99832.59;;;20.49;58.71
23996;BME280;12207;50.076;8.848;2023-08-31T09:06:39;99838.03;;;20.49;58.53
23996;BME280;12207;50.076;8.848;2023-08-31T09:09:09;99845.03;;;19.77;59.34
23996;BME280;12207;50.076;8.848;2023-08-31T09:11:35;99845.72;;;20.36;59.50
23996;BME280;12207;50.076;8.848;2023-08-31T09:14:18;99845.53;;;20.62;58.37
23996;BME280;12207;50.076;8.848;2023-08-31T09:16:48;99846.38;;;20.57;59.89
23996;BME280;12207;50.076;8.848;2023-08-31T09:19:25;99849.53;;;20.35;58.64
23996;BME280;12207;50.076;8.848;2023-08-31T09:21:56;99850.53;;;19.61;60.60
23996;BME280;12207;50.076;8.848;2023-08-31T09:24:23;99843.69;;;19.74;61.87
23996;BME280;12207;50.076;8.848;2023-08-31T09:26:54;99836.19;;;19.56;61.19
23996;BME280;12207;50.076;8.848;2023-08-31T09:29:21;99837.44;;;18.94;63.85
23996;BME280;12207;50.076;8.848;2023-08-31T09:31:47;99840.22;;;18.73;64.53
23996;BME280;12207;50.076;8.848;2023-08-31T09:34:14;99834.78;;;18.58;65.30
23996;BME280;12207;50.076;8.848;2023-08-31T09:36:41;99841.84;;;18.39;66.49
23996;BME280;12207;50.076;8.848;2023-08-31T09:39:08;99834.50;;;18.19;67.20
23996;BME280;12207;50.076;8.848;2023-08-31T09:41:35;99836.09;;;18.00;66.05
23996;BME280;12207;50.076;8.848;2023-08-31T09:44:18;99833.63;;;17.68;67.89
23996;BME280;12207;50.076;8.848;2023-08-31T09:46:45;99844.13;;;17.59;70.33
23996;BME280;12207;50.076;8.848;2023-08-31T09:49:14;99837.31;;;17.52;70.84
23996;BME280;12207;50.076;8.848;2023-08-31T09:51:45;99835.41;;;17.47;70.05
23996;BME280;12207;50.076;8.848;2023-08-31T09:54:16;99839.50;;;17.55;70.74
23996;BME280;12207;50.076;8.848;2023-08-31T09:56:44;99837.84;;;17.49;70.64
23996;BME280;12207;50.076;8.848;2023-08-31T09:59:12;99841.31;;;18.62;66.31
23996;BME280;12207;50.076;8.848;2023-08-31T10:01:40;99832.59;;;20.09;62.54
23996;BME280;12207;50.076;8.848;2023-08-31T10:04:07;99822.06;;;20.32;61.83
23996;BME280;12207;50.076;8.848;2023-08-31T10:06:35;99832.63;;;20.04;60.79
23996;BME280;12207;50.076;8.848;2023-08-31T10:09:05;99821.09;;;20.18;58.71
23996;BME280;12207;50.076;8.848;2023-08-31T10:11:32;99824.31;;;19.86;62.10
23996;BME280;12207;50.076;8.848;2023-08-31T10:13:59;99826.31;;;19.70;60.41
23996;BME280;12207;50.076;8.848;2023-08-31T10:16:28;99827.47;;;19.49;60.08
23996;BME280;12207;50.076;8.848;2023-08-31T10:18:56;99824.59;;;19.25;62.66
23996;BME280;12207;50.076;8.848;2023-08-31T10:21:25;99829.31;;;18.99;61.12
23996;BME280;12207;50.076;8.848;2023-08-31T10:23:52;99832.88;;;18.84;61.79
23996;BME280;12207;50.076;8.848;2023-08-31T10:28:53;99839.66;;;18.82;60.58
23996;BME280;12207;50.076;8.848;2023-08-31T10:31:20;99836.00;;;19.22;61.04
23996;BME280;12207;50.076;8.848;2023-08-31T10:34:04;99840.63;;;19.26;59.55
23996;BME280;12207;50.076;8.848;2023-08-31T10:36:39;99836.81;;;19.32;60.20
23996;BME280;12207;50.076;8.848;2023-08-31T10:39:16;99834.84;;;19.43;61.65
23996;BME280;12207;50.076;8.848;2023-08-31T10:41:53;99837.75;;;19.67;57.42
23996;BME280;12207;50.076;8.848;2023-08-31T10:44:22;99832.75;;;19.84;56.98
23996;BME280;12207;50.076;8.848;2023-08-31T10:46:52;99832.56;;;20.15;56.27
23996;BME280;12207;50.076;8.848;2023-08-31T10:49:20;99830.47;;;20.01;56.82
23996;BME280;12207;50.076;8.848;2023-08-31T10:51:53;99832.38;;;20.98;57.62
23996;BME280;12207;50.076;8.848;2023-08-31T10:54:22;99834.56;;;21.25;53.54
23996;BME280;12207;50.076;8.848;2023-08-31T10:59:50;99828.03;;;20.34;54.85
23996;BME280;12207;50.076;8.848;2023-08-31T11:02:41;99830.66;;;19.71;56.66
23996;BME280;12207;50.076;8.848;2023-08-31T11:05:10;99823.78;;;19.29;58.23
23996;BME280;12207;50.076;8.848;2023-08-31T11:07:38;99832.22;;;19.18;59.44
23996;BME280;12207;50.076;8.848;2023-08-31T11:12:33;99821.50;;;20.40;57.49
23996;BME280;12207;50.076;8.848;2023-08-31T11:14:59;99816.78;;;21.27;56.36
23996;BME280;12207;50.076;8.848;2023-08-31T11:17:27;99819.47;;;21.32;53.78
23996;BME280;12207;50.076;8.848;2023-08-31T11:19:53;99816.19;;;21.06;52.54
23996;BME280;12207;50.076;8.848;2023-08-31T11:22:19;99815.72;;;20.75;55.32
23996;BME280;12207;50.076;8.848;2023-08-31T11:24:47;99814.25;;;20.59;54.69
23996;BME280;12207;50.076;8.848;2023-08-31T11:27:13;99806.66;;;20.22;58.33
23996;BME280;12207;50.076;8.848;2023-08-31T11:29:43;99808.03;;;20.20;59.34
23996;BME280;12207;50.076;8.848;2023-08-31T11:32:10;99807.06;;;20.05;57.64
23996;BME280;12207;50.076;8.848;2023-08-31T11:34:40;99817.03;;;19.81;58.50
23996;BME280;12207;50.076;8.848;2023-08-31T11:37:08;99813.22;;;19.77;59.16
23996;BME280;12207;50.076;8.848;2023-08-31T11:39:38;99811.38;;;19.67;58.49
23996;BME280;12207;50.076;8.848;2023-08-31T11:42:05;99817.88;;;19.71;60.32
23996;BME280;12207;50.076;8.848;2023-08-31T11:44:32;99820.28;;;19.83;60.87
23996;BME280;12207;50.076;8.848;2023-08-31T11:46:59;99818.69;;;19.72;60.60
23996;BME280;12207;50.076;8.848;2023-08-31T11:49:27;99815.84;;;19.38;61.51
23996;BME280;12207;50.076;8.848;2023-08-31T11:51:54;99812.13;;;19.14;61.79
23996;BME280;12207;50.076;8.848;2023-08-31T11:54:21;99805.66;;;19.04;63.22
23996;BME280;12207;50.076;8.848;2023-08-31T11:56:50;99812.72;;;19.00;65.63
23996;BME280;12207;50.076;8.848;2023-08-31T11:59:18;99809.25;;;18.85;67.32
23996;BME280;12207;50.076;8.848;2023-08-31T12:01:46;99809.00;;;18.71;66.57
23996;BME280;12207;50.076;8.848;2023-08-31T12:04:19;99815.28;;;18.61;69.88
23996;BME280;12207;50.076;8.848;2023-08-31T12:06:51;99818.53;;;18.38;70.69
23996;BME280;12207;50.076;8.848;2023-08-31T12:09:18;99818.50;;;18.28;73.22
23996;BME280;12207;50.076;8.848;2023-08-31T12:11:53;99812.81;;;18.09;73.47
23996;BME280;12207;50.076;8.848;2023-08-31T12:14:21;99821.22;;;18.18;74.67
23996;BME280;12207;50.076;8.848;2023-08-31T12:16:48;99820.13;;;18.14;74.97
23996;BME280;12207;50.076;8.848;2023-08-31T12:19:15;99812.53;;;18.26;73.31
23996;BME280;12207;50.076;8.848;2023-08-31T12:21:45;99810.09;;;18.50;74.86
23996;BME280;12207;50.076;8.848;2023-08-31T12:24:12;99813.59;;;18.45;68.57
23996;BME280;12207;50.076;8.848;2023-08-31T12:26:42;99813.63;;;18.40;70.88
23996;BME280;12207;50.076;8.848;2023-08-31T12:29:08;99809.31;;;18.64;70.20
23996;BME280;12207;50.076;8.848;2023-08-31T12:31:35;99808.72;;;18.67;68.76
23996;BME280;12207;50.076;8.848;2023-08-31T12:34:02;99814.47;;;18.61;64.81
23996;BME280;12207;50.076;8.848;2023-08-31T12:36:34;99811.97;;;18.44;69.56
23996;BME280;12207;50.076;8.848;2023-08-31T12:39:03;99810.38;;;18.18;68.86
23996;BME280;12207;50.076;8.848;2023-08-31T12:41:32;99798.97;;;18.26;73.05
23996;BME280;12207;50.076;8.848;2023-08-31T12:43:58;99794.66;;;18.40;72.63
23996;BME280;12207;50.076;8.848;2023-08-31T12:46:25;99799.53;;;18.28;75.72
23996;BME280;12207;50.076;8.848;2023-08-31T12:48:55;99793.81;;;17.89;77.88
23996;BME280;12207;50.076;8.848;2023-08-31T12:51:21;99800.03;;;17.84;77.64
23996;BME280;12207;50.076;8.848;2023-08-31T12:53:48;99796.22;;;17.80;77.79
23996;BME280;12207;50.076;8.848;2023-08-31T12:56:14;99791.34;;;17.82;77.41
23996;BME280;12207;50.076;8.848;2023-08-31T12:58:53;99788.63;;;17.77;79.15
23996;BME280;12207;50.076;8.848;2023-08-31T13:01:20;99785.66;;;17.79;78.00
23996;BME280;12207;50.076;8.848;2023-08-31T13:03:47;99779.97;;;17.85;79.08
23996;BME280;12207;50.076;8.848;2023-08-31T13:06:14;99785.69;;;17.94;78.87
23996;BME280;12207;50.076;8.848;2023-08-31T13:08:42;99780.00;;;18.05;80.01
23996;BME280;12207;50.076;8.848;2023-08-31T13:11:11;99782.72;;;18.36;77.60
23996;BME280;12207;50.076;8.848;2023-08-31T13:13:41;99781.56;;;18.88;77.36